Aviation Digital Data Service (ADDS)

Output produced by METARs form (0218 UTC 22 April 2019)
found at http://www.aviationweather.gov/metar/data/
 
Forecast for: ZGNN (NANNING/WUXU , CN)
Text: TAF ZGNN 211912Z 2200/2224 12003MPS 6000 SCT033 TX33/2207Z TN25/2222Z
Forecast period: 0000 UTC 22 April 2019 to 0000 UTC 23 April 2019
Forecast type: FROM: standard forecast or significant change
Winds: from the ESE (120 degrees) at 7 MPH (6 knots; 3.1 m/s)
Visibility: 4 miles (6 km)
Ceiling: at least 12,000 feet AGL
Clouds: scattered clouds at 3300 feet AGL
Weather: no significant weather forecast for this period
Text: TEMPO 2206/2212 FEW026CB BKN030
Forecast period: 0600 to 1200 UTC 22 April 2019
Forecast type: TEMPORARY: The following changes expected for less than half the time period
Visibility: missing
Ceiling: 3000 feet AGL
Clouds: few clouds at 2600 feet AGL
broken clouds at 3000 feet AGL
Weather: no significant weather forecast for this period